createdAt,value
2023-03-28T00:00:27.393Z,2.400
2023-03-28T00:01:30.642Z,2.200
2023-03-28T00:03:26.966Z,2.400
2023-03-28T00:04:27.127Z,2.200
2023-03-28T00:05:25.881Z,2.400
2023-03-28T00:06:26.471Z,2.099
2023-03-28T00:07:26.309Z,2.200
2023-03-28T00:09:26.022Z,2.400
2023-03-28T00:10:27.242Z,2
2023-03-28T00:11:26.570Z,2.299
2023-03-28T00:12:25.776Z,2
2023-03-28T00:13:25.758Z,2.200
2023-03-28T00:15:26.249Z,2.400
2023-03-28T00:16:26.452Z,2.200
2023-03-28T00:20:26.531Z,1.899
2023-03-28T00:21:25.626Z,2.099
2023-03-28T00:22:26.291Z,1.799
2023-03-28T00:24:26.334Z,2.099
2023-03-28T00:25:26.523Z,2.200
2023-03-28T00:26:26.980Z,2
2023-03-28T00:27:26.193Z,2.400
2023-03-28T00:28:25.486Z,2
2023-03-28T00:29:25.828Z,2.299
2023-03-28T00:30:26.466Z,2.200
2023-03-28T00:31:25.483Z,2.5
2023-03-28T00:32:24.903Z,2.200
2023-03-28T00:33:25.786Z,2.299
2023-03-28T00:35:26.641Z,1.899
2023-03-28T00:36:24.964Z,2.400
2023-03-28T00:37:26.182Z,2.200
2023-03-28T00:38:26.037Z,2
2023-03-28T00:39:25.998Z,1.899
2023-03-28T00:40:26.125Z,2.299
2023-03-28T00:41:27.647Z,2.200
2023-03-28T00:42:26.439Z,1.799
2023-03-28T00:43:26.267Z,2
2023-03-28T00:44:26.500Z,1.799
2023-03-28T00:45:26.203Z,2.299
2023-03-28T00:46:26.547Z,2.099
2023-03-28T00:47:26.098Z,1.899
2023-03-28T00:48:25.724Z,2.099
2023-03-28T00:49:25.992Z,2
2023-03-28T00:50:26.146Z,2.099
2023-03-28T00:51:26.267Z,1.799
2023-03-28T00:52:25.080Z,2
2023-03-28T00:53:25.556Z,2.299
2023-03-28T00:54:26.131Z,2.099
2023-03-28T00:55:27.004Z,2.299
2023-03-28T00:57:25.087Z,2.599
2023-03-28T00:58:25.791Z,2.200
2023-03-28T00:59:26.523Z,2.099
2023-03-28T01:00:27.470Z,2
2023-03-28T01:01:26.042Z,1.899
2023-03-28T01:02:28.285Z,2
2023-03-28T01:03:26.197Z,2.200
2023-03-28T01:04:26.093Z,1.899
2023-03-28T01:06:44.675Z,2.299
2023-03-28T01:07:25.573Z,2.099
2023-03-28T01:08:25.045Z,2.200
2023-03-28T01:09:26.067Z,2.099
2023-03-28T01:10:26.429Z,1.899
2023-03-28T01:11:27.011Z,2.400
2023-03-28T01:12:26.896Z,2.099
2023-03-28T01:13:26.101Z,2.400
2023-03-28T01:14:26.510Z,1.799
2023-03-28T01:15:26.051Z,2
2023-03-28T01:16:25.939Z,2.099
2023-03-28T01:17:26.426Z,2
2023-03-28T01:18:25.660Z,2.099
2023-03-28T01:19:26.529Z,2.299
2023-03-28T01:20:26.928Z,2.099
2023-03-28T01:21:25.933Z,1.899
2023-03-28T01:22:26.472Z,2.299
2023-03-28T01:23:25.871Z,2
2023-03-28T01:25:26.373Z,2.200
2023-03-28T01:26:26.179Z,1.899
2023-03-28T01:28:26.457Z,2.200
2023-03-28T01:29:27.118Z,2.099
2023-03-28T01:30:26.429Z,1.899
2023-03-28T01:31:26.666Z,2.299
2023-03-28T01:32:27.320Z,2
2023-03-28T01:33:26.697Z,1.799
2023-03-28T01:34:26.221Z,2.099
2023-03-28T01:35:26.718Z,1.899
2023-03-28T01:36:34.645Z,2.200
2023-03-28T01:37:26.433Z,1.799
2023-03-28T01:39:26.403Z,2.200
2023-03-28T01:40:26.839Z,2.099
2023-03-28T01:41:26.183Z,2.200
2023-03-28T01:42:27.346Z,1.899
2023-03-28T01:43:25.751Z,2
2023-03-28T01:45:26.490Z,1.899
2023-03-28T01:47:26.247Z,2.099
2023-03-28T01:48:26.248Z,2.200
2023-03-28T01:49:26.047Z,2.400
2023-03-28T01:50:26.650Z,2.099
2023-03-28T01:51:26.796Z,2
2023-03-28T01:52:26.467Z,2.400
2023-03-28T01:53:27.430Z,2.099
2023-03-28T01:54:26.566Z,2.200
2023-03-28T01:55:26.024Z,2.099
2023-03-28T01:56:27.052Z,2.200
2023-03-28T01:57:26.950Z,2.099
2023-03-28T01:58:26.303Z,2.200
2023-03-28T01:59:27.575Z,2.299
2023-03-28T02:01:27.219Z,1.799
2023-03-28T02:02:26.342Z,1.899
2023-03-28T02:03:26.609Z,2
2023-03-28T02:04:27.045Z,2.099
2023-03-28T02:05:27.122Z,2.299
2023-03-28T02:06:26.876Z,2.099
2023-03-28T02:07:25.487Z,1.700
2023-03-28T02:08:25.600Z,2.099
2023-03-28T02:09:26.873Z,2.200
2023-03-28T02:10:26.570Z,2.599
2023-03-28T02:11:26.272Z,2.299
2023-03-28T02:12:26.134Z,2.099
2023-03-28T02:13:25.506Z,2.299
2023-03-28T02:14:26.007Z,2.400
2023-03-28T02:15:27.760Z,2
2023-03-28T02:16:26.417Z,2.400
2023-03-28T02:17:27.280Z,2.099
2023-03-28T02:19:26.839Z,2.5
2023-03-28T02:20:25.677Z,2.200
2023-03-28T02:21:25.994Z,2.099
2023-03-28T02:22:26.401Z,1.899
2023-03-28T02:24:25.579Z,2.099
2023-03-28T02:25:26.949Z,1.899
2023-03-28T02:26:26.210Z,1.700
2023-03-28T02:27:25.833Z,1.799
2023-03-28T02:28:26.257Z,2
2023-03-28T02:30:26.654Z,1.899
2023-03-28T02:31:25.284Z,1.700
2023-03-28T02:32:25.813Z,1.600
2023-03-28T02:33:26.710Z,1.899
2023-03-28T02:35:26.486Z,1.700
2023-03-28T02:36:26.254Z,2.299
2023-03-28T02:37:26.623Z,2.400
2023-03-28T02:38:26.530Z,2.200
2023-03-28T02:39:26.540Z,2
2023-03-28T02:40:26.944Z,2.200
2023-03-28T02:41:26.637Z,1.799
2023-03-28T02:42:26.722Z,2.200
2023-03-28T02:43:25.936Z,1.899
2023-03-28T02:44:27.226Z,2.400
2023-03-28T02:45:26.802Z,1.899
2023-03-28T02:46:26.838Z,2.299
2023-03-28T02:47:25.797Z,1.899
2023-03-28T02:48:26.562Z,2.099
2023-03-28T02:49:26.410Z,2.5
2023-03-28T02:50:25.369Z,2
2023-03-28T02:51:26.051Z,2.299
2023-03-28T02:52:25.923Z,2.200
2023-03-28T02:53:25.677Z,2.400
2023-03-28T02:54:26.667Z,1.799
2023-03-28T02:55:26.658Z,2.200
2023-03-28T02:56:26.381Z,1.700
2023-03-28T02:57:26.426Z,2
2023-03-28T02:58:26.334Z,1.799
2023-03-28T02:59:26.322Z,2.099
2023-03-28T03:01:27.140Z,2.200
2023-03-28T03:02:28.102Z,2.099
2023-03-28T03:03:25.722Z,2.299
2023-03-28T03:05:26.490Z,2.200
2023-03-28T03:06:26.096Z,2.299
2023-03-28T03:07:26.045Z,2.200
2023-03-28T03:08:25.805Z,2.099
2023-03-28T03:09:26.591Z,2.400
2023-03-28T03:10:26.175Z,2
2023-03-28T03:11:26.544Z,2.099
2023-03-28T03:14:26.075Z,2.400
2023-03-28T03:15:27.157Z,2.200
2023-03-28T03:16:26.373Z,2.099
2023-03-28T03:17:26.717Z,2.200
2023-03-28T03:19:27.589Z,2.099
2023-03-28T03:20:26.418Z,2.200
2023-03-28T03:21:26.594Z,2.099
2023-03-28T03:23:26.942Z,2.299
2023-03-28T03:24:26.616Z,2
2023-03-28T03:25:26.351Z,2.200
2023-03-28T03:26:25.711Z,2
2023-03-28T03:29:26.521Z,2.099
2023-03-28T03:30:26.845Z,2
2023-03-28T03:31:26.819Z,2.099
2023-03-28T03:32:26.884Z,2.200
2023-03-28T03:33:27.277Z,1.899
2023-03-28T03:34:26.692Z,2.299
2023-03-28T03:35:26.880Z,2.200
2023-03-28T03:37:26.879Z,2
2023-03-28T03:38:26.564Z,2.099
2023-03-28T03:41:26.202Z,2.200
2023-03-28T03:43:25.824Z,2.400
2023-03-28T03:44:27.159Z,2.099
2023-03-28T03:45:25.839Z,2.400
2023-03-28T03:46:26.556Z,2.200
2023-03-28T03:47:26.934Z,2.299
2023-03-28T03:48:26.710Z,2.5
2023-03-28T03:49:26.451Z,2.200
2023-03-28T03:50:27.081Z,2.099
2023-03-28T03:51:25.860Z,2.400
2023-03-28T03:52:27.816Z,2
2023-03-28T03:54:27.838Z,2.299
2023-03-28T03:55:25.975Z,2.099
2023-03-28T03:56:26.452Z,2.200
2023-03-28T03:57:26.216Z,2.5
2023-03-28T03:59:25.565Z,2.700
2023-03-28T04:00:27.321Z,2.299
2023-03-28T04:01:26.277Z,2.200
2023-03-28T04:03:27.379Z,2
2023-03-28T04:04:27.194Z,2.299
2023-03-28T04:05:26.801Z,2.400
2023-03-28T04:06:26.348Z,2.299
2023-03-28T04:07:27.261Z,2.599
2023-03-28T04:08:25.434Z,2.5
2023-03-28T04:09:26.351Z,2.099
2023-03-28T04:10:27.166Z,2.200
2023-03-28T04:12:26.658Z,2.400
2023-03-28T04:13:26.042Z,2
2023-03-28T04:14:26.984Z,2.400
2023-03-28T04:15:26.177Z,2.200
2023-03-28T04:16:26.195Z,2.099
2023-03-28T04:17:26.633Z,2.200
2023-03-28T04:18:26.184Z,2.299
2023-03-28T04:19:25.624Z,2.200
2023-03-28T04:21:26.235Z,2.599
2023-03-28T04:22:26.770Z,2.400
2023-03-28T04:24:26.811Z,2.299
2023-03-28T04:25:27.775Z,2.200
2023-03-28T04:27:27.926Z,2.599
2023-03-28T04:28:26.953Z,2.5
2023-03-28T04:29:27.080Z,2
2023-03-28T04:30:27.945Z,2.200
2023-03-28T04:31:26.871Z,2.299
2023-03-28T04:33:27.409Z,2.200
2023-03-28T04:34:26.511Z,2.099
2023-03-28T04:35:25.656Z,2.5
2023-03-28T04:36:26.656Z,2.200
2023-03-28T04:37:27.311Z,2.299
2023-03-28T04:39:25.899Z,2.599
2023-03-28T04:40:26.652Z,2
2023-03-28T04:41:27.300Z,2.299
2023-03-28T04:42:26.843Z,1.899
2023-03-28T04:43:25.682Z,2.599
2023-03-28T04:44:26.485Z,2.5
2023-03-28T04:45:26.863Z,2.099
2023-03-28T04:46:27.468Z,2.400
2023-03-28T04:47:26.756Z,2.299
2023-03-28T04:49:24.865Z,2.099
2023-03-28T04:50:26.346Z,2
2023-03-28T04:51:25.850Z,2.200
2023-03-28T04:52:27.480Z,2.099
2023-03-28T04:53:26.836Z,2.200
2023-03-28T04:54:26.480Z,2.5
2023-03-28T04:55:27.258Z,2.200
2023-03-28T04:57:27.474Z,2.299
2023-03-28T04:58:25.706Z,2.200
2023-03-28T04:59:25.999Z,2.299
2023-03-28T05:01:26.403Z,2.599
2023-03-28T05:03:26.307Z,2.099
2023-03-28T05:04:26.539Z,2.400
2023-03-28T05:05:26.808Z,2.099
2023-03-28T05:06:25.833Z,2.200
2023-03-28T05:07:27.305Z,2.099
2023-03-28T05:08:26.095Z,2.299
2023-03-28T05:09:26.798Z,2.200
2023-03-28T05:10:26.916Z,2.400
2023-03-28T05:12:26.496Z,2.5
2023-03-28T05:13:27.161Z,3
2023-03-28T05:14:25.974Z,2.700
2023-03-28T05:15:27.574Z,2.799
2023-03-28T05:16:27.171Z,2.700
2023-03-28T05:17:27.320Z,3.200
2023-03-28T05:18:26.646Z,2.599
2023-03-28T05:19:26.930Z,3
2023-03-28T05:20:26.738Z,2.799
2023-03-28T05:21:27.655Z,2.700
2023-03-28T05:22:26.137Z,2.599
2023-03-28T05:23:26.931Z,2.700
2023-03-28T05:24:26.199Z,2.799
2023-03-28T05:25:25.933Z,2.599
2023-03-28T05:26:25.860Z,2.799
2023-03-28T05:27:26.998Z,2.700
2023-03-28T05:28:26.941Z,2.900
2023-03-28T05:29:26.716Z,3
2023-03-28T05:30:26.819Z,2.799
2023-03-28T05:32:28.317Z,3.400
2023-03-28T05:33:27.599Z,3
2023-03-28T05:36:26.238Z,2.900
2023-03-28T05:37:28.550Z,3.099
2023-03-28T05:39:26.995Z,2.900
2023-03-28T05:40:26.173Z,3.200
2023-03-28T05:41:27.230Z,2.900
2023-03-28T05:43:27.009Z,3.200
2023-03-28T05:44:27.922Z,2.700
2023-03-28T05:45:26.610Z,2.900
2023-03-28T05:46:27.210Z,2.799
2023-03-28T05:49:26.365Z,2.700
2023-03-28T05:50:27.030Z,3
2023-03-28T05:51:26.677Z,2.799
2023-03-28T05:53:26.498Z,3
2023-03-28T05:54:25.508Z,3.200
2023-03-28T05:55:27.529Z,2.900
2023-03-28T05:56:26.641Z,3
2023-03-28T05:57:25.843Z,3.099
2023-03-28T05:59:26.313Z,2.799
2023-03-28T06:00:26.854Z,3.099
2023-03-28T06:01:27.011Z,3
2023-03-28T06:02:26.294Z,3.099
2023-03-28T06:03:27.569Z,3
2023-03-28T06:04:29.524Z,3.099
2023-03-28T06:05:27.472Z,2.900
2023-03-28T06:06:26.246Z,2.5
2023-03-28T06:07:39.247Z,3.400
2023-03-28T06:08:27.114Z,2.799
2023-03-28T06:09:28.389Z,3
2023-03-28T06:10:27.190Z,3.099
2023-03-28T06:12:28.092Z,3
2023-03-28T06:13:26.625Z,3.299
2023-03-28T06:14:26.732Z,3.400
2023-03-28T06:15:28.410Z,3.5
2023-03-28T06:16:30.569Z,4.599
2023-03-28T06:17:26.711Z,6
2023-03-28T06:18:26.653Z,5.699
2023-03-28T06:19:26.398Z,6.099
2023-03-28T06:20:26.647Z,5.900
2023-03-28T06:21:27.238Z,5.699
2023-03-28T06:22:26.719Z,5.099
2023-03-28T06:23:27.913Z,5.5
2023-03-28T06:24:27.314Z,5.099
2023-03-28T06:25:26.126Z,5.199
2023-03-28T06:26:28.462Z,4.800
2023-03-28T06:27:26.852Z,4.699
2023-03-28T06:28:25.943Z,4.800
2023-03-28T06:29:27.313Z,4.900
2023-03-28T06:30:26.433Z,4.199
2023-03-28T06:31:25.900Z,4.400
2023-03-28T06:32:27.135Z,4.199
2023-03-28T06:34:27.236Z,3.700
2023-03-28T06:35:27.420Z,3.900
2023-03-28T06:37:25.817Z,3.5
2023-03-28T06:39:27.144Z,3.400
2023-03-28T06:41:26.842Z,3.200
2023-03-28T06:42:25.879Z,3.099
2023-03-28T06:43:27.213Z,3.200
2023-03-28T06:44:27.207Z,3.299
2023-03-28T06:46:27.716Z,2.799
2023-03-28T06:47:28.795Z,3
2023-03-28T06:48:26.752Z,2.900
2023-03-28T06:50:27.003Z,2.700
2023-03-28T06:52:27.635Z,2.900
2023-03-28T06:53:27.574Z,2.700
2023-03-28T06:54:27.176Z,2.799
2023-03-28T06:55:26.996Z,2.900
2023-03-28T06:56:27.272Z,2.700
2023-03-28T06:57:26.238Z,2.900
2023-03-28T06:58:27.786Z,2.599
2023-03-28T07:00:27.671Z,2.900
2023-03-28T07:01:29.643Z,2.799
2023-03-28T07:03:26.766Z,2.5
2023-03-28T07:05:26.343Z,2.599
2023-03-28T07:06:27.795Z,2.700
2023-03-28T07:07:27.815Z,2.599
2023-03-28T07:08:26.578Z,2.400
2023-03-28T07:09:26.866Z,2.5
2023-03-28T07:10:27.152Z,2.599
2023-03-28T07:11:25.472Z,2.5
2023-03-28T07:12:27.762Z,2.599
2023-03-28T07:13:26.567Z,2.5
2023-03-28T07:14:26.892Z,2.299
2023-03-28T07:15:27.343Z,2.700
2023-03-28T07:16:25.898Z,2.400
2023-03-28T07:17:27.338Z,2.599
2023-03-28T07:18:27.202Z,2.099
2023-03-28T07:19:26.477Z,2.5
2023-03-28T07:20:26.600Z,2.299
2023-03-28T07:21:28.516Z,2.799
2023-03-28T07:22:27.387Z,2.400
2023-03-28T07:24:27.328Z,2.299
2023-03-28T07:25:26.382Z,2.5
2023-03-28T07:26:26.297Z,2.700
2023-03-28T07:28:27.828Z,2.5
2023-03-28T07:30:26.861Z,2.200
2023-03-28T07:31:26.379Z,2.299
2023-03-28T07:32:29.204Z,2.099
2023-03-28T07:33:35.332Z,2.200
2023-03-28T07:34:26.432Z,2.400
2023-03-28T07:35:26.488Z,2.200
2023-03-28T07:36:26.305Z,2.400
2023-03-28T07:37:26.053Z,2.299
2023-03-28T07:38:26.382Z,2.5
2023-03-28T07:39:26.235Z,2.200
2023-03-28T07:40:27.490Z,2.299
2023-03-28T07:41:28.409Z,2.099
2023-03-28T07:42:27.453Z,2.400
2023-03-28T07:43:25.964Z,2.200
2023-03-28T07:44:26.130Z,2
2023-03-28T07:45:26.160Z,2.200
2023-03-28T07:46:26.400Z,2.299
2023-03-28T07:48:27.744Z,2.200
2023-03-28T07:49:25.418Z,2
2023-03-28T07:50:28.053Z,2.099
2023-03-28T07:51:27.191Z,2.5
2023-03-28T07:52:25.507Z,1.899
2023-03-28T07:53:26.917Z,2
2023-03-28T07:54:27.559Z,1.899
2023-03-28T07:55:27.290Z,2.099
2023-03-28T07:57:26.606Z,2
2023-03-28T07:58:26.490Z,2.299
2023-03-28T07:59:25.743Z,2
2023-03-28T08:00:27.513Z,1.899
2023-03-28T08:01:26.393Z,2
2023-03-28T08:03:26.800Z,1.799
2023-03-28T08:05:27.083Z,1.899
2023-03-28T08:06:32.062Z,2
2023-03-28T08:07:26.414Z,1.799
2023-03-28T08:08:26.817Z,2.099
2023-03-28T08:09:26.289Z,1.700
2023-03-28T08:10:27.348Z,2.200
2023-03-28T08:11:25.804Z,2.299
2023-03-28T08:12:25.496Z,2.200
2023-03-28T08:13:26.437Z,2
2023-03-28T08:16:33.999Z,2.400
2023-03-28T08:17:26.186Z,1.799
2023-03-28T08:19:25.467Z,1.899
2023-03-28T08:21:26.804Z,1.5
2023-03-28T08:22:27.025Z,1.799
2023-03-28T08:23:26.450Z,1.399
2023-03-28T08:24:35.244Z,1.299
2023-03-28T08:25:26.071Z,1.600
2023-03-28T08:26:25.950Z,1.100
2023-03-28T08:27:26.285Z,1.399
2023-03-28T08:28:25.620Z,1.100
2023-03-28T08:29:26.770Z,1.200
2023-03-28T08:30:27.055Z,1.299
2023-03-28T08:32:27.507Z,1.5
2023-03-28T08:33:28.242Z,1.200
2023-03-28T08:36:26.993Z,1.399
2023-03-28T08:37:27.002Z,1.600
2023-03-28T08:38:26.009Z,1.299
2023-03-28T08:39:26.818Z,1.200
2023-03-28T08:40:26.765Z,1.600
2023-03-28T08:41:26.512Z,1.899
2023-03-28T08:42:27.413Z,1.600
2023-03-28T08:43:26.461Z,1.5
2023-03-28T08:44:26.700Z,1.399
2023-03-28T08:45:26.976Z,1.5
2023-03-28T08:46:25.726Z,1.399
2023-03-28T08:47:26.349Z,1.200
2023-03-28T08:48:26.246Z,1.600
2023-03-28T08:50:26.522Z,1.299
2023-03-28T08:53:27.471Z,1.399
2023-03-28T08:54:26.813Z,2
2023-03-28T08:55:26.632Z,3
2023-03-28T08:56:27.146Z,1.899
2023-03-28T08:57:27.590Z,1.700
2023-03-28T08:59:25.874Z,1.299
2023-03-28T09:00:23.170Z,1.5
